Time;durP1;ratioP1;P1;durP2;ratioP2;P2;SDS_P1;SDS_P2;PMS_P1;PMS_P2;Temp;Humidity;BMP_temperature;BMP_pressure;BME280_temperature;BME280_humidity;BME280_pressure;Samples;Min_cycle;Max_cycle;Signal;HPM_P1;HPM_P2
2023/09/04 00:00:41;;;;;;;13.38;8.38;;;;;;;;;;5035262;28;20028;-59
2023/09/04 00:03:07;;;;;;;11.50;7.72;;;;;;;;;;5051537;28;20040;-60
2023/09/04 00:05:33;;;;;;;16.40;8.30;;;;;;;;;;5049281;28;20417;-60
2023/09/04 00:07:59;;;;;;;11.85;8.50;;;;;;;;;;5051005;28;20043;-60
2023/09/04 00:10:25;;;;;;;12.90;8.07;;;;;;;;;;5050470;28;20119;-60
2023/09/04 00:12:50;;;;;;;11.15;7.90;;;;;;;;;;5050384;28;20117;-60
2023/09/04 00:15:16;;;;;;;13.88;8.13;;;;;;;;;;5049098;28;20050;-60
2023/09/04 00:17:41;;;;;;;11.40;8.00;;;;;;;;;;5050247;28;20033;-60
2023/09/04 00:20:08;;;;;;;10.80;7.45;;;;;;;;;;5048387;28;20029;-60
2023/09/04 00:22:33;;;;;;;10.02;7.72;;;;;;;;;;5050223;28;20037;-60
2023/09/04 00:24:59;;;;;;;10.25;7.70;;;;;;;;;;5050936;28;20062;-60
2023/09/04 00:27:26;;;;;;;9.02;7.40;;;;;;;;;;5045452;28;20473;-60
2023/09/04 00:29:51;;;;;;;12.00;7.85;;;;;;;;;;5038644;28;20032;-60
2023/09/04 00:32:17;;;;;;;10.88;7.75;;;;;;;;;;5046471;28;20037;-60
2023/09/04 00:34:42;;;;;;;10.40;7.85;;;;;;;;;;5050433;28;20029;-60
2023/09/04 00:37:09;;;;;;;9.65;7.72;;;;;;;;;;5049041;28;20033;-60
2023/09/04 00:39:36;;;;;;;9.70;7.38;;;;;;;;;;5050212;28;20047;-60
2023/09/04 00:42:01;;;;;;;11.52;8.07;;;;;;;;;;5049891;28;20584;-60
2023/09/04 00:44:26;;;;;;;10.80;7.95;;;;;;;;;;5031345;28;20120;-60
2023/09/04 00:46:52;;;;;;;12.05;8.63;;;;;;;;;;5042049;28;20037;-60
2023/09/04 00:49:18;;;;;;;13.10;8.52;;;;;;;;;;5049410;28;20127;-60
2023/09/04 00:51:44;;;;;;;11.90;8.07;;;;;;;;;;5048701;28;20033;-60
2023/09/04 00:54:14;;;;;;;10.98;8.05;;;;;;;;;;5047750;28;20496;-60
2023/09/04 00:56:40;;;;;;;11.77;8.77;;;;;;;;;;5040636;28;20036;-60
2023/09/04 00:59:05;;;;;;;12.93;8.93;;;;;;;;;;5048444;28;20045;-60
2023/09/04 01:01:32;;;;;;;10.95;8.63;;;;;;;;;;5046729;28;20112;-60
2023/09/04 01:03:57;;;;;;;15.40;9.48;;;;;;;;;;5039483;28;20036;-60
2023/09/04 01:06:23;;;;;;;12.02;9.02;;;;;;;;;;5040901;28;20033;-60
2023/09/04 01:08:48;;;;;;;13.85;9.85;;;;;;;;;;5032973;28;20968;-60
2023/09/04 01:11:34;;;;;;;13.55;9.35;;;;;;;;;;5039475;28;20044;-60
2023/09/04 01:14:00;;;;;;;12.82;9.40;;;;;;;;;;5051388;28;20033;-60
2023/09/04 01:16:25;;;;;;;13.27;10.25;;;;;;;;;;5049098;28;20049;-60
2023/09/04 01:18:51;;;;;;;13.65;10.38;;;;;;;;;;5048721;28;20064;-60
2023/09/04 01:21:17;;;;;;;16.75;11.57;;;;;;;;;;5048623;28;20040;-60
2023/09/04 01:23:42;;;;;;;15.25;10.55;;;;;;;;;;5047605;28;20477;-60
2023/09/04 01:26:14;;;;;;;17.90;11.50;;;;;;;;;;5036661;28;20037;-60
2023/09/04 01:28:45;;;;;;;16.50;11.43;;;;;;;;;;5036716;28;20061;-60
2023/09/04 01:31:20;;;;;;;15.80;11.23;;;;;;;;;;5046393;28;20079;-60
2023/09/04 01:33:57;;;;;;;14.93;11.65;;;;;;;;;;5036334;28;20037;-59
2023/09/04 01:36:26;;;;;;;18.13;12.00;;;;;;;;;;5049274;28;20065;-60
2023/09/04 01:38:53;;;;;;;19.33;12.35;;;;;;;;;;5049459;28;20469;-60
2023/09/04 01:41:19;;;;;;;19.33;11.90;;;;;;;;;;5050077;28;20048;-60
2023/09/04 01:43:44;;;;;;;17.20;11.70;;;;;;;;;;5034959;28;20037;-60
2023/09/04 01:46:10;;;;;;;16.52;11.90;;;;;;;;;;5031171;28;20068;-59
2023/09/04 01:48:35;;;;;;;16.52;11.20;;;;;;;;;;5042400;28;20040;-60
2023/09/04 01:51:01;;;;;;;18.33;12.23;;;;;;;;;;5033914;28;20037;-60
2023/09/04 01:53:26;;;;;;;18.83;11.93;;;;;;;;;;5048181;28;20033;-60
2023/09/04 01:55:52;;;;;;;19.05;11.55;;;;;;;;;;5039032;28;20029;-60
2023/09/04 01:58:17;;;;;;;16.80;11.80;;;;;;;;;;5041341;28;20036;-59
2023/09/04 02:00:43;;;;;;;16.67;11.38;;;;;;;;;;5036154;28;20588;-60
2023/09/04 02:03:09;;;;;;;16.30;11.60;;;;;;;;;;5051469;28;20059;-60
2023/09/04 02:05:38;;;;;;;17.88;12.13;;;;;;;;;;5038192;28;20036;-59
2023/09/04 02:08:07;;;;;;;17.65;12.32;;;;;;;;;;5042254;28;20037;-60
2023/09/04 02:10:33;;;;;;;15.98;12.02;;;;;;;;;;5047484;28;20111;-60
2023/09/04 02:12:59;;;;;;;17.98;11.80;;;;;;;;;;5052144;28;20055;-60
2023/09/04 02:15:24;;;;;;;15.82;11.63;;;;;;;;;;5038968;28;20386;-60
2023/09/04 02:17:51;;;;;;;17.20;11.20;;;;;;;;;;5049722;28;20029;-60
2023/09/04 02:20:17;;;;;;;22.67;12.27;;;;;;;;;;5054169;28;20381;-60
2023/09/04 02:22:43;;;;;;;18.70;12.60;;;;;;;;;;5051636;28;20028;-60
2023/09/04 02:25:09;;;;;;;18.15;12.25;;;;;;;;;;5052436;28;20048;-60
2023/09/04 02:27:34;;;;;;;17.08;12.15;;;;;;;;;;5050960;28;20025;-60
2023/09/04 02:30:02;;;;;;;17.73;12.50;;;;;;;;;;5047503;28;20044;-60
2023/09/04 02:32:28;;;;;;;19.20;12.73;;;;;;;;;;5048124;28;20104;-60
2023/09/04 02:34:53;;;;;;;18.55;12.80;;;;;;;;;;5051507;28;20596;-60
2023/09/04 02:37:19;;;;;;;18.55;12.68;;;;;;;;;;5045275;28;20429;-60
2023/09/04 02:39:44;;;;;;;18.92;12.63;;;;;;;;;;5033169;28;20074;-60
2023/09/04 02:42:10;;;;;;;20.15;13.68;;;;;;;;;;5036156;28;20074;-60
2023/09/04 02:44:35;;;;;;;22.80;13.38;;;;;;;;;;5038817;28;20029;-60
2023/09/04 02:47:00;;;;;;;19.88;13.40;;;;;;;;;;5053503;28;20043;-60
2023/09/04 02:49:26;;;;;;;20.58;12.88;;;;;;;;;;5053094;28;20091;-60
2023/09/04 02:51:51;;;;;;;19.48;13.15;;;;;;;;;;5047864;28;20041;-60
2023/09/04 02:54:17;;;;;;;17.70;12.45;;;;;;;;;;5037467;28;20195;-60
2023/09/04 02:56:42;;;;;;;18.30;13.20;;;;;;;;;;5051804;28;20032;-60
2023/09/04 02:59:07;;;;;;;19.65;12.98;;;;;;;;;;5052305;28;20040;-60
2023/09/04 03:01:34;;;;;;;19.63;13.38;;;;;;;;;;5050375;28;20423;-60
2023/09/04 03:03:59;;;;;;;20.25;13.27;;;;;;;;;;5037567;28;20021;-60
2023/09/04 03:06:25;;;;;;;21.02;14.05;;;;;;;;;;5036760;28;20028;-59
2023/09/04 03:08:50;;;;;;;22.75;13.73;;;;;;;;;;5049099;28;20075;-59
2023/09/04 03:11:16;;;;;;;18.63;12.60;;;;;;;;;;5052475;28;20044;-60
2023/09/04 03:13:41;;;;;;;23.73;14.10;;;;;;;;;;5048501;28;20445;-60
2023/09/04 03:16:07;;;;;;;19.70;13.77;;;;;;;;;;5046867;28;20478;-59
2023/09/04 03:18:33;;;;;;;19.75;14.13;;;;;;;;;;5033301;28;20071;-60
2023/09/04 03:21:00;;;;;;;23.52;14.93;;;;;;;;;;5041488;28;20044;-59
2023/09/04 03:23:26;;;;;;;24.00;15.35;;;;;;;;;;5042933;28;20120;-60
2023/09/04 03:25:51;;;;;;;24.02;15.32;;;;;;;;;;5043793;28;20435;-60
2023/09/04 03:28:16;;;;;;;25.85;15.65;;;;;;;;;;5035960;28;20032;-60
2023/09/04 03:30:42;;;;;;;28.90;17.20;;;;;;;;;;5035680;28;20031;-60
2023/09/04 03:33:07;;;;;;;25.30;16.88;;;;;;;;;;5036104;28;20037;-60
2023/09/04 03:35:33;;;;;;;31.40;17.77;;;;;;;;;;5039698;28;20117;-60
2023/09/04 03:37:58;;;;;;;26.90;17.15;;;;;;;;;;5031554;28;20026;-60
2023/09/04 03:40:25;;;;;;;29.83;19.63;;;;;;;;;;5045813;28;20060;-59
2023/09/04 03:42:51;;;;;;;28.45;18.20;;;;;;;;;;5043437;28;20105;-59
2023/09/04 03:45:17;;;;;;;29.00;18.42;;;;;;;;;;5048464;28;20044;-60
2023/09/04 03:47:46;;;;;;;30.48;19.50;;;;;;;;;;5050331;28;20108;-60
2023/09/04 03:50:12;;;;;;;31.23;18.40;;;;;;;;;;5051355;28;20178;-60
2023/09/04 03:52:38;;;;;;;30.17;19.23;;;;;;;;;;5051220;28;20100;-60
2023/09/04 03:55:06;;;;;;;28.05;17.58;;;;;;;;;;5045092;28;20021;-60
2023/09/04 03:57:31;;;;;;;29.50;18.25;;;;;;;;;;5043016;28;20166;-60
2023/09/04 03:59:57;;;;;;;27.77;16.85;;;;;;;;;;5049298;28;20100;-59
2023/09/04 04:02:22;;;;;;;29.70;18.10;;;;;;;;;;5037625;28;20168;-61
2023/09/04 04:04:51;;;;;;;24.77;16.88;;;;;;;;;;5031710;28;20025;-60
2023/09/04 04:07:17;;;;;;;26.42;17.45;;;;;;;;;;5039900;28;20516;-59
2023/09/04 04:09:44;;;;;;;32.28;18.20;;;;;;;;;;5052098;28;20033;-60
2023/09/04 04:12:10;;;;;;;26.67;17.67;;;;;;;;;;5051876;28;20040;-60
2023/09/04 04:14:35;;;;;;;25.73;17.95;;;;;;;;;;5040559;28;20189;-61
2023/09/04 04:17:01;;;;;;;27.58;17.00;;;;;;;;;;5045832;28;20378;-60
2023/09/04 04:19:27;;;;;;;28.48;16.20;;;;;;;;;;5032945;28;20382;-60
2023/09/04 04:21:53;;;;;;;31.48;19.08;;;;;;;;;;5046935;28;20158;-60
2023/09/04 04:24:19;;;;;;;33.47;18.35;;;;;;;;;;5049085;28;20509;-59
2023/09/04 04:26:45;;;;;;;32.28;18.17;;;;;;;;;;5034764;28;20044;-60
2023/09/04 04:29:11;;;;;;;30.40;18.60;;;;;;;;;;5034764;28;20033;-60
2023/09/04 04:31:36;;;;;;;31.08;19.20;;;;;;;;;;5052061;28;20389;-61
2023/09/04 04:34:02;;;;;;;30.05;19.27;;;;;;;;;;5051126;28;20390;-60
2023/09/04 04:36:27;;;;;;;29.67;19.02;;;;;;;;;;5050025;28;20033;-59
2023/09/04 04:38:53;;;;;;;33.63;20.50;;;;;;;;;;5051095;28;20021;-60
2023/09/04 04:41:18;;;;;;;34.28;20.55;;;;;;;;;;5050425;28;20484;-60
2023/09/04 04:43:44;;;;;;;31.00;19.95;;;;;;;;;;5047085;28;20493;-59
2023/09/04 04:46:12;;;;;;;36.10;20.25;;;;;;;;;;5031742;28;20390;-59
2023/09/04 04:48:38;;;;;;;35.78;20.65;;;;;;;;;;5036686;28;20462;-60
2023/09/04 04:51:03;;;;;;;33.03;20.83;;;;;;;;;;5030692;28;20120;-59
2023/09/04 04:53:29;;;;;;;34.75;20.42;;;;;;;;;;5050922;28;20104;-59
2023/09/04 04:55:55;;;;;;;36.55;20.90;;;;;;;;;;5032760;28;20131;-59
2023/09/04 04:58:21;;;;;;;30.48;18.67;;;;;;;;;;5051507;28;20029;-59
2023/09/04 05:00:47;;;;;;;32.13;19.40;;;;;;;;;;5050530;28;20061;-59
2023/09/04 05:03:12;;;;;;;30.15;19.15;;;;;;;;;;5038294;28;20022;-59
2023/09/04 05:05:45;;;;;;;34.58;20.02;;;;;;;;;;5039883;28;20036;-59
2023/09/04 05:08:10;;;;;;;30.90;19.48;;;;;;;;;;5042588;28;20065;-58
2023/09/04 05:10:35;;;;;;;32.50;19.52;;;;;;;;;;5050873;28;20500;-59
2023/09/04 05:13:01;;;;;;;30.55;18.75;;;;;;;;;;5050307;28;20067;-57
2023/09/04 05:15:26;;;;;;;30.10;18.98;;;;;;;;;;5049252;28;20044;-58
2023/09/04 05:17:52;;;;;;;31.15;18.25;;;;;;;;;;5047097;28;20052;-57
2023/09/04 05:20:17;;;;;;;33.70;20.15;;;;;;;;;;5031827;28;20415;-60
2023/09/04 05:22:42;;;;;;;35.33;19.65;;;;;;;;;;5048141;28;20047;-59
2023/09/04 05:25:09;;;;;;;33.97;18.80;;;;;;;;;;5045698;28;20037;-60
2023/09/04 05:27:34;;;;;;;28.92;18.95;;;;;;;;;;5039272;28;20075;-60
2023/09/04 05:30:00;;;;;;;27.55;18.25;;;;;;;;;;5044309;28;20190;-60
2023/09/04 05:32:25;;;;;;;30.45;18.08;;;;;;;;;;5051628;28;20057;-60
2023/09/04 05:34:54;;;;;;;28.20;18.13;;;;;;;;;;5053438;28;20043;-61
2023/09/04 05:37:21;;;;;;;29.67;18.73;;;;;;;;;;5037057;28;20028;-60
2023/09/04 05:39:46;;;;;;;28.58;18.15;;;;;;;;;;5053301;28;20139;-60
2023/09/04 05:42:12;;;;;;;27.05;17.48;;;;;;;;;;5053598;28;20480;-61
2023/09/04 05:44:37;;;;;;;28.13;18.15;;;;;;;;;;5050893;28;20029;-60
2023/09/04 05:47:03;;;;;;;25.75;17.88;;;;;;;;;;5052362;28;20067;-61
2023/09/04 05:49:28;;;;;;;27.42;18.02;;;;;;;;;;5054454;28;20103;-60
2023/09/04 05:51:54;;;;;;;29.75;17.63;;;;;;;;;;5050379;28;20112;-60
2023/09/04 05:54:20;;;;;;;27.05;16.83;;;;;;;;;;5053915;28;20033;-61
2023/09/04 05:56:45;;;;;;;25.50;17.38;;;;;;;;;;5052597;28;20032;-61
2023/09/04 05:59:12;;;;;;;24.67;16.80;;;;;;;;;;5054468;28;20036;-61
2023/09/04 06:01:38;;;;;;;25.65;16.25;;;;;;;;;;5042046;28;20029;-62
2023/09/04 06:04:04;;;;;;;23.88;16.30;;;;;;;;;;5048090;28;20031;-60
2023/09/04 06:06:30;;;;;;;27.25;17.52;;;;;;;;;;5047145;28;20040;-60
2023/09/04 06:08:55;;;;;;;26.85;17.85;;;;;;;;;;5052832;28;20172;-64
2023/09/04 06:11:20;;;;;;;22.50;16.25;;;;;;;;;;5043881;28;20024;-60
2023/09/04 06:13:46;;;;;;;25.67;16.60;;;;;;;;;;5051625;28;20029;-60
2023/09/04 06:16:12;;;;;;;24.13;16.17;;;;;;;;;;5053721;28;20056;-59
2023/09/04 06:18:38;;;;;;;22.33;15.75;;;;;;;;;;5053895;28;20036;-60
2023/09/04 06:21:03;;;;;;;21.33;15.48;;;;;;;;;;5052752;28;20642;-60
2023/09/04 06:23:29;;;;;;;21.25;14.93;;;;;;;;;;5054074;28;20029;-60
2023/09/04 06:25:54;;;;;;;22.50;14.98;;;;;;;;;;5046511;28;20029;-59
2023/09/04 06:28:19;;;;;;;21.00;15.30;;;;;;;;;;5046532;28;20048;-61
2023/09/04 06:30:45;;;;;;;22.48;14.82;;;;;;;;;;5051340;28;20037;-59
2023/09/04 06:33:10;;;;;;;19.98;14.15;;;;;;;;;;5050994;28;20144;-60
2023/09/04 06:35:36;;;;;;;19.67;13.77;;;;;;;;;;5053445;28;20102;-60
2023/09/04 06:38:02;;;;;;;20.88;13.65;;;;;;;;;;5052100;28;20033;-60
2023/09/04 06:40:27;;;;;;;18.55;13.75;;;;;;;;;;5053099;28;20040;-60
2023/09/04 06:42:53;;;;;;;19.55;14.20;;;;;;;;;;5047183;28;20046;-59
2023/09/04 06:45:19;;;;;;;20.65;13.15;;;;;;;;;;5048605;28;20473;-60
2023/09/04 06:47:44;;;;;;;19.60;12.98;;;;;;;;;;5052199;28;20028;-60
2023/09/04 06:50:10;;;;;;;17.35;13.70;;;;;;;;;;5051341;28;20037;-60
2023/09/04 06:52:35;;;;;;;16.98;13.05;;;;;;;;;;5051937;28;20051;-60
2023/09/04 06:55:03;;;;;;;19.35;13.52;;;;;;;;;;5048754;28;20515;-59
2023/09/04 06:57:28;;;;;;;18.30;12.90;;;;;;;;;;5043559;28;20033;-54
2023/09/04 06:59:56;;;;;;;18.30;13.15;;;;;;;;;;5051311;28;20036;-61
2023/09/04 07:02:21;;;;;;;20.08;13.15;;;;;;;;;;5049683;28;20086;-60
2023/09/04 07:04:47;;;;;;;17.90;12.82;;;;;;;;;;5051742;28;20112;-60
2023/09/04 07:07:12;;;;;;;17.02;12.90;;;;;;;;;;5039361;28;20040;-60
2023/09/04 07:09:37;;;;;;;16.02;12.25;;;;;;;;;;5053216;28;20115;-60
2023/09/04 07:12:04;;;;;;;15.65;12.10;;;;;;;;;;5051837;28;20081;-58
2023/09/04 07:14:31;;;;;;;15.00;11.68;;;;;;;;;;5051390;28;20387;-59
2023/09/04 07:16:56;;;;;;;19.08;11.65;;;;;;;;;;5051832;28;20067;-60
2023/09/04 07:19:22;;;;;;;14.43;11.27;;;;;;;;;;5052486;28;20413;-61
2023/09/04 07:21:47;;;;;;;16.90;11.45;;;;;;;;;;5048528;28;20047;-58
2023/09/04 07:24:13;;;;;;;14.32;10.75;;;;;;;;;;5051786;28;20029;-60
2023/09/04 07:26:41;;;;;;;15.85;11.13;;;;;;;;;;5052512;28;20029;-59
2023/09/04 07:29:06;;;;;;;14.07;11.25;;;;;;;;;;5048877;28;20472;-58
2023/09/04 07:31:32;;;;;;;13.10;10.60;;;;;;;;;;5031248;28;20026;-58
2023/09/04 07:33:57;;;;;;;13.45;10.10;;;;;;;;;;5051293;28;20032;-58
2023/09/04 07:36:23;;;;;;;12.90;9.57;;;;;;;;;;5051112;28;20499;-60
2023/09/04 07:38:51;;;;;;;15.20;10.55;;;;;;;;;;5050383;28;20021;-59
2023/09/04 07:41:16;;;;;;;15.95;10.70;;;;;;;;;;5051946;28;20029;-60
2023/09/04 07:43:41;;;;;;;15.32;10.63;;;;;;;;;;5051371;28;20078;-61
2023/09/04 07:46:07;;;;;;;13.50;10.75;;;;;;;;;;5062966;28;20045;-60
2023/09/04 07:48:35;;;;;;;14.27;9.80;;;;;;;;;;5030829;28;20030;-61
2023/09/04 07:51:04;;;;;;;11.90;9.80;;;;;;;;;;5046459;28;20044;-59
2023/09/04 07:53:29;;;;;;;14.02;10.43;;;;;;;;;;5053624;28;20043;-59
2023/09/04 07:55:54;;;;;;;13.35;10.13;;;;;;;;;;5049912;28;20021;-58
2023/09/04 07:58:20;;;;;;;12.68;10.00;;;;;;;;;;5040171;28;20033;-58
2023/09/04 08:00:50;;;;;;;11.30;9.30;;;;;;;;;;5051824;28;20068;-60
2023/09/04 08:03:16;;;;;;;14.43;9.40;;;;;;;;;;5051498;28;20386;-57
2023/09/04 08:05:42;;;;;;;12.65;8.40;;;;;;;;;;5050345;28;20266;-59
2023/09/04 08:08:12;;;;;;;10.18;8.15;;;;;;;;;;5036619;28;20037;-58
2023/09/04 08:10:40;;;;;;;11.63;8.10;;;;;;;;;;5051350;28;20442;-58
2023/09/04 08:13:17;;;;;;;10.90;7.28;;;;;;;;;;5050828;28;20032;-54
2023/09/04 08:15:44;;;;;;;10.00;7.00;;;;;;;;;;5050948;28;20052;-56
2023/09/04 08:18:09;;;;;;;11.27;8.18;;;;;;;;;;5050525;28;20031;-55
2023/09/04 08:20:36;;;;;;;11.65;9.05;;;;;;;;;;5049411;28;20033;-58
2023/09/04 08:23:02;;;;;;;13.45;9.90;;;;;;;;;;5050780;28;20033;-59
2023/09/04 08:25:27;;;;;;;13.68;10.30;;;;;;;;;;5047776;28;20476;-60
2023/09/04 08:27:53;;;;;;;14.20;10.88;;;;;;;;;;5049762;28;20044;-58
2023/09/04 08:30:18;;;;;;;11.80;9.05;;;;;;;;;;5041207;28;20377;-58
2023/09/04 08:32:44;;;;;;;13.68;10.13;;;;;;;;;;5051504;28;20033;-58
2023/09/04 08:35:11;;;;;;;14.73;10.07;;;;;;;;;;5050514;28;20025;-59
2023/09/04 08:37:36;;;;;;;12.45;9.40;;;;;;;;;;5051200;28;20428;-58
2023/09/04 08:40:02;;;;;;;14.80;10.40;;;;;;;;;;5049236;28;20473;-59
2023/09/04 08:42:28;;;;;;;13.15;10.10;;;;;;;;;;5037821;28;20041;-59
2023/09/04 08:44:56;;;;;;;16.08;10.55;;;;;;;;;;5049561;28;20382;-58
2023/09/04 08:47:22;;;;;;;12.98;9.00;;;;;;;;;;5048638;28;20040;-58
2023/09/04 08:49:48;;;;;;;12.40;9.13;;;;;;;;;;5050840;28;20041;-59
2023/09/04 08:52:13;;;;;;;13.85;9.25;;;;;;;;;;5041794;28;20032;-60
2023/09/04 08:54:42;;;;;;;12.73;8.30;;;;;;;;;;5043260;28;20050;-58
2023/09/04 08:57:11;;;;;;;12.55;9.30;;;;;;;;;;5036383;28;20148;-55
2023/09/04 08:59:36;;;;;;;14.73;8.13;;;;;;;;;;5045777;28;20036;-59
2023/09/04 09:02:05;;;;;;;11.40;8.50;;;;;;;;;;5049817;28;20030;-60
2023/09/04 09:04:32;;;;;;;13.98;9.35;;;;;;;;;;5035836;28;20051;-60
2023/09/04 09:06:59;;;;;;;12.90;7.88;;;;;;;;;;5050271;28;20087;-59
2023/09/04 09:09:26;;;;;;;13.48;9.18;;;;;;;;;;5055567;28;20033;-59
2023/09/04 09:11:54;;;;;;;11.48;8.07;;;;;;;;;;5054050;28;20032;-58
2023/09/04 09:14:28;;;;;;;11.30;7.60;;;;;;;;;;5047364;28;20032;-59
2023/09/04 09:17:07;;;;;;;12.40;8.50;;;;;;;;;;5053738;28;20121;-58
2023/09/04 09:19:38;;;;;;;11.50;8.65;;;;;;;;;;5053160;28;20059;-59
2023/09/04 09:22:15;;;;;;;13.00;7.68;;;;;;;;;;5051815;28;20423;-58
2023/09/04 09:24:56;;;;;;;11.52;7.10;;;;;;;;;;5055073;28;20040;-59
2023/09/04 09:27:24;;;;;;;10.20;5.63;;;;;;;;;;5055183;28;20108;-59
2023/09/04 09:29:50;;;;;;;8.48;5.57;;;;;;;;;;5054389;28;20041;-59
2023/09/04 09:32:18;;;;;;;9.43;5.13;;;;;;;;;;5053980;28;20041;-59
2023/09/04 09:34:51;;;;;;;7.65;4.40;;;;;;;;;;5052498;28;20540;-58
2023/09/04 09:37:17;;;;;;;8.43;3.83;;;;;;;;;;5053091;28;20035;-60
2023/09/04 09:39:43;;;;;;;7.60;4.57;;;;;;;;;;5053092;28;20032;-59
2023/09/04 09:42:09;;;;;;;7.30;4.97;;;;;;;;;;5053516;28;20112;-58
2023/09/04 09:44:34;;;;;;;5.50;3.80;;;;;;;;;;5053276;28;20053;-59
2023/09/04 09:47:00;;;;;;;6.90;3.40;;;;;;;;;;5051934;28;20041;-58
2023/09/04 09:49:26;;;;;;;4.47;2.90;;;;;;;;;;5040133;28;20226;-58
2023/09/04 09:51:53;;;;;;;7.10;3.58;;;;;;;;;;5048577;28;20036;-59
2023/09/04 09:54:37;;;;;;;6.18;3.15;;;;;;;;;;5051794;28;20028;-57
2023/09/04 09:57:07;;;;;;;4.88;3.35;;;;;;;;;;5053769;28;20032;-58
2023/09/04 09:59:33;;;;;;;5.23;3.20;;;;;;;;;;5054079;28;20035;-58
2023/09/04 10:02:01;;;;;;;5.90;3.00;;;;;;;;;;5045149;28;20321;-58
2023/09/04 10:04:28;;;;;;;4.95;2.72;;;;;;;;;;5051927;28;20029;-58
2023/09/04 10:06:57;;;;;;;5.25;2.88;;;;;;;;;;5053271;28;20072;-58
2023/09/04 10:09:24;;;;;;;4.40;3.00;;;;;;;;;;5053788;28;20036;-57
2023/09/04 10:12:33;;;;;;;5.57;3.20;;;;;;;;;;5053653;28;20033;-58
2023/09/04 10:15:00;;;;;;;4.03;2.70;;;;;;;;;;5052018;28;20090;-62
2023/09/04 10:17:39;;;;;;;5.40;2.85;;;;;;;;;;5052436;28;20029;-59
2023/09/04 10:20:05;;;;;;;4.15;2.63;;;;;;;;;;5052718;28;20067;-60
2023/09/04 10:22:37;;;;;;;3.95;2.70;;;;;;;;;;5053402;28;20029;-61
2023/09/04 10:25:27;;;;;;;4.97;2.92;;;;;;;;;;5052774;28;20498;-60
2023/09/04 10:28:02;;;;;;;6.00;2.75;;;;;;;;;;5053136;28;20489;-59
2023/09/04 10:30:30;;;;;;;3.75;2.70;;;;;;;;;;5052697;28;20164;-59
2023/09/04 10:32:58;;;;;;;6.43;3.13;;;;;;;;;;5050051;28;20033;-60
2023/09/04 10:35:23;;;;;;;5.57;2.65;;;;;;;;;;5053684;28;20591;-60
2023/09/04 10:37:49;;;;;;;3.97;2.75;;;;;;;;;;5053340;28;20050;-60
2023/09/04 10:40:16;;;;;;;5.28;2.97;;;;;;;;;;5042352;28;20116;-61
2023/09/04 10:42:43;;;;;;;4.93;2.70;;;;;;;;;;5067904;28;20040;-60
2023/09/04 10:45:16;;;;;;;4.15;2.50;;;;;;;;;;5049210;28;20701;-61
2023/09/04 10:47:46;;;;;;;4.75;2.95;;;;;;;;;;5049827;28;20021;-59
2023/09/04 10:50:34;;;;;;;6.10;2.80;;;;;;;;;;5047951;28;20028;-59
2023/09/04 10:53:00;;;;;;;4.32;2.80;;;;;;;;;;5052691;28;20036;-59
2023/09/04 10:55:27;;;;;;;4.07;2.78;;;;;;;;;;5053668;28;20029;-59
2023/09/04 10:58:06;;;;;;;5.60;2.80;;;;;;;;;;5052711;28;20436;-60
2023/09/04 11:00:38;;;;;;;10.93;3.13;;;;;;;;;;5049139;28;20041;-61
2023/09/04 11:03:22;;;;;;;6.88;3.22;;;;;;;;;;5035888;28;20108;-60
2023/09/04 11:06:05;;;;;;;7.18;3.15;;;;;;;;;;5050591;28;20033;-60
2023/09/04 11:08:35;;;;;;;5.97;2.70;;;;;;;;;;5039065;28;20061;-60
2023/09/04 11:11:06;;;;;;;5.43;2.90;;;;;;;;;;5051375;28;21048;-60
2023/09/04 11:13:32;;;;;;;4.55;2.75;;;;;;;;;;5051833;28;20121;-61
2023/09/04 11:15:58;;;;;;;5.43;2.78;;;;;;;;;;5050423;28;20080;-60
2023/09/04 11:18:31;;;;;;;5.32;3.40;;;;;;;;;;5053027;28;20073;-60
2023/09/04 11:20:57;;;;;;;6.65;3.60;;;;;;;;;;5051439;28;20032;-60
2023/09/04 11:23:27;;;;;;;8.13;3.70;;;;;;;;;;5052442;28;20032;-58
2023/09/04 11:25:52;;;;;;;5.75;3.92;;;;;;;;;;5042523;28;20043;-59
2023/09/04 11:28:25;;;;;;;9.32;4.90;;;;;;;;;;5051604;28;20381;-60
2023/09/04 11:30:57;;;;;;;5.80;3.80;;;;;;;;;;5051348;28;20040;-59
2023/09/04 11:33:27;;;;;;;6.63;4.00;;;;;;;;;;5036975;28;20028;-61
2023/09/04 11:36:00;;;;;;;6.22;3.25;;;;;;;;;;5051929;28;20025;-60
2023/09/04 11:38:28;;;;;;;8.43;4.07;;;;;;;;;;5051728;28;20048;-60
2023/09/04 11:40:53;;;;;;;7.13;3.60;;;;;;;;;;5035774;28;20496;-60
2023/09/04 11:43:20;;;;;;;4.60;3.22;;;;;;;;;;5032102;28;20057;-61
2023/09/04 11:45:45;;;;;;;3.92;3.10;;;;;;;;;;5040729;28;20047;-61
2023/09/04 11:48:13;;;;;;;3.85;3.10;;;;;;;;;;5051255;28;20240;-61
2023/09/04 11:50:38;;;;;;;3.95;3.22;;;;;;;;;;5052384;28;20029;-61
2023/09/04 11:53:05;;;;;;;6.53;3.22;;;;;;;;;;5050277;28;20425;-60
2023/09/04 11:55:30;;;;;;;4.80;3.55;;;;;;;;;;5052144;28;20029;-61
2023/09/04 11:57:56;;;;;;;5.32;3.80;;;;;;;;;;5050926;28;20355;-61
2023/09/04 12:00:21;;;;;;;5.57;3.60;;;;;;;;;;5043373;28;20033;-60
2023/09/04 12:02:47;;;;;;;4.20;3.10;;;;;;;;;;5046422;28;20468;-60
2023/09/04 12:05:17;;;;;;;5.65;3.90;;;;;;;;;;5049488;28;20534;-60
2023/09/04 12:07:42;;;;;;;5.53;3.50;;;;;;;;;;5051471;28;20044;-60
2023/09/04 12:10:08;;;;;;;4.00;3.30;;;;;;;;;;5045868;28;20127;-60
2023/09/04 12:12:34;;;;;;;6.20;4.80;;;;;;;;;;5045126;28;20035;-61
2023/09/04 12:15:00;;;;;;;6.13;3.80;;;;;;;;;;5048088;28;20041;-60
2023/09/04 12:17:29;;;;;;;9.05;4.20;;;;;;;;;;5051503;28;20039;-60
2023/09/04 12:19:54;;;;;;;5.50;3.80;;;;;;;;;;5050313;28;20075;-59
2023/09/04 12:22:20;;;;;;;4.80;3.70;;;;;;;;;;5051967;28;20037;-61
2023/09/04 12:25:06;;;;;;;5.32;3.80;;;;;;;;;;5050807;28;20116;-60
2023/09/04 12:27:33;;;;;;;5.55;3.70;;;;;;;;;;5033248;28;20128;-60
2023/09/04 12:29:59;;;;;;;4.20;3.80;;;;;;;;;;5049364;28;20129;-60
2023/09/04 12:32:25;;;;;;;4.38;3.97;;;;;;;;;;5050328;28;20057;-60
2023/09/04 12:34:58;;;;;;;7.70;4.53;;;;;;;;;;5048876;28;20040;-59
2023/09/04 12:37:23;;;;;;;4.88;4.28;;;;;;;;;;5051068;28;20477;-61
2023/09/04 12:39:49;;;;;;;5.40;4.20;;;;;;;;;;5051269;28;20025;-60
2023/09/04 12:42:14;;;;;;;6.28;4.40;;;;;;;;;;5049796;28;20116;-60
2023/09/04 12:44:40;;;;;;;4.55;4.03;;;;;;;;;;5050055;28;20338;-60
2023/09/04 12:47:05;;;;;;;4.82;3.92;;;;;;;;;;5043993;28;20087;-60
2023/09/04 12:49:33;;;;;;;4.88;4.07;;;;;;;;;;5051124;28;20474;-60
2023/09/04 12:51:59;;;;;;;5.15;3.88;;;;;;;;;;5050454;28;20055;-59
2023/09/04 12:54:24;;;;;;;4.90;4.10;;;;;;;;;;5049684;28;20025;-59
2023/09/04 12:56:49;;;;;;;6.68;4.53;;;;;;;;;;5046897;28;20033;-59
2023/09/04 12:59:15;;;;;;;5.55;4.47;;;;;;;;;;5050770;28;20039;-60
2023/09/04 13:01:40;;;;;;;6.07;4.28;;;;;;;;;;5045634;28;20029;-60
2023/09/04 13:04:06;;;;;;;6.68;4.30;;;;;;;;;;5049997;28;20037;-60
2023/09/04 13:06:32;;;;;;;5.50;4.10;;;;;;;;;;5051045;28;20087;-59
2023/09/04 13:09:00;;;;;;;4.97;4.05;;;;;;;;;;5049212;28;20036;-62
2023/09/04 13:11:26;;;;;;;5.25;4.40;;;;;;;;;;5049708;28;20393;-61
2023/09/04 13:13:51;;;;;;;6.07;4.32;;;;;;;;;;5049479;28;20462;-60
2023/09/04 13:16:16;;;;;;;5.25;4.20;;;;;;;;;;5050778;28;20060;-62
2023/09/04 13:18:42;;;;;;;4.90;4.20;;;;;;;;;;5050968;28;20037;-61
2023/09/04 13:21:09;;;;;;;5.32;4.00;;;;;;;;;;5047354;28;20069;-60
2023/09/04 13:23:36;;;;;;;4.88;4.40;;;;;;;;;;5050153;28;20029;-60
2023/09/04 13:26:01;;;;;;;5.13;4.28;;;;;;;;;;5050019;28;20033;-62
2023/09/04 13:28:27;;;;;;;5.28;3.83;;;;;;;;;;5049365;28;20167;-61
2023/09/04 13:30:52;;;;;;;4.60;4.20;;;;;;;;;;5050081;28;20025;-59
2023/09/04 13:33:18;;;;;;;5.65;4.15;;;;;;;;;;5050676;28;20041;-60
2023/09/04 13:35:43;;;;;;;4.93;4.00;;;;;;;;;;5050392;28;20033;-59
2023/09/04 13:38:08;;;;;;;5.28;4.50;;;;;;;;;;5043022;28;20063;-59
2023/09/04 13:40:36;;;;;;;6.00;4.22;;;;;;;;;;5045962;28;20413;-60
2023/09/04 13:43:01;;;;;;;5.38;4.30;;;;;;;;;;5041670;28;20037;-59
2023/09/04 13:45:27;;;;;;;8.32;4.80;;;;;;;;;;5050787;28;20055;-59
2023/09/04 13:47:52;;;;;;;4.60;4.20;;;;;;;;;;5049693;28;20091;-60
2023/09/04 13:50:18;;;;;;;5.68;4.40;;;;;;;;;;5050812;28;20037;-60
2023/09/04 13:52:43;;;;;;;5.65;4.80;;;;;;;;;;5042872;28;20086;-61
2023/09/04 13:55:09;;;;;;;4.78;4.20;;;;;;;;;;5051572;28;20051;-60
2023/09/04 13:57:34;;;;;;;5.15;4.40;;;;;;;;;;5053236;28;20535;-60
2023/09/04 14:00:00;;;;;;;6.35;4.25;;;;;;;;;;5053062;28;20021;-60
2023/09/04 14:02:25;;;;;;;5.10;4.60;;;;;;;;;;5054317;28;20033;-61
2023/09/04 14:04:50;;;;;;;6.53;4.20;;;;;;;;;;5050814;28;20048;-60
2023/09/04 14:07:16;;;;;;;6.03;4.43;;;;;;;;;;5042764;28;20108;-60
2023/09/04 14:09:41;;;;;;;4.80;4.28;;;;;;;;;;5052975;28;20547;-60
2023/09/04 14:12:08;;;;;;;5.10;4.60;;;;;;;;;;5052485;28;20123;-60
2023/09/04 14:14:34;;;;;;;7.25;4.78;;;;;;;;;;5054921;28;20120;-60
2023/09/04 14:16:59;;;;;;;5.40;4.68;;;;;;;;;;5054322;28;20107;-58
2023/09/04 14:19:25;;;;;;;5.72;4.57;;;;;;;;;;5054069;28;20025;-58
2023/09/04 14:21:50;;;;;;;6.43;4.40;;;;;;;;;;5054203;28;20588;-57
2023/09/04 14:24:16;;;;;;;4.82;4.40;;;;;;;;;;5050979;28;20032;-59
2023/09/04 14:26:42;;;;;;;5.72;4.57;;;;;;;;;;5053393;28;20033;-58